Latest Coastal Weather Observations for Geelong Racecourse

IDV60701

Issued at 12:01 am EST Monday 20 April 2015 (issued every 10 minutes, with the page automatically refreshed every 10 minutes)

About coastal observations | Map of coastal stations | Coastal observations for VIC | Marine services | Other Formats
Station Details ID: 087184 Name: GEELONG RACECOURSE Lat: -38.17 Lon: 144.38 Height: 12.9 m
Data from the previous 72 hours. | See also: Recent months at Geelong Racecourse
Date/Time
EST
Temp

°C
Wind Pressure Rain
since 9am
mm
Weather Cloud Vis
km
Sea
Height
m
Swell
Dir
 
Speed
knots
Gust
knots
hPa Trend Height
m
Period
s
Dir
20/12:00am 10.7 S 6 8 1035.7 - 0.2 - - - - - - -
 
Date/Time
EST
Temp

°C
Wind Pressure Rain
since 9am
mm
Weather Cloud Vis
km
Sea
Height
m
Swell
Dir
 
Speed
knots
Gust
knots
hPa Trend Height
m
Period
s
Dir
19/11:30pm 10.9 SSW 7 9 1035.7 - 0.2 - - - - - - -
19/11:00pm 10.7 S 5 7 1035.8 - 0.2 - - - - - - -
19/10:30pm 10.9 S 7 9 1035.7 - 0.2 - - - - - - -
19/10:00pm 11.1 S 6 8 1035.5 - 0.2 - - - - - - -
19/09:30pm 10.9 SSW 7 10 1035.3 - 0.2 - - - - - - -
19/09:00pm 10.8 SSW 7 11 1035.0 - 0.2 - - - - - - -
19/08:30pm 11.3 S 8 11 1034.6 - 0.2 - - - - - - -
19/08:00pm 11.5 S 11 16 1034.4 - 0.2 - - - - - - -
19/07:30pm 11.5 S 9 13 1033.9 - 0.2 - - - - - - -
19/07:00pm 11.0 S 7 10 1033.5 - 0.2 - - - - - - -
19/06:30pm 11.6 S 11 16 1033.0 - 0.2 - - - - - - -
19/06:00pm 11.5 SW 8 12 1032.6 - 0.2 - - - - - - -
19/05:30pm 11.8 SSW 10 14 1032.2 - 0.2 - - - - - - -
19/05:00pm 12.4 SSW 13 19 1031.9 - 0.2 - - - - - - -
19/04:30pm 12.6 S 12 17 1031.5 - 0.2 - - - - - - -
19/04:02pm 13.1 S 15 27 1031.2 - 0.2 - - - - - - -
19/04:00pm 13.4 S 14 23 1031.1 - 0.2 - - - - - - -
19/03:30pm 13.7 S 13 19 1030.8 - 0.2 - - - - - - -
19/03:00pm 12.7 SSW 16 21 1030.7 - 0.2 - - - - - - -
19/02:30pm 14.8 SSW 14 21 1030.2 - 0.2 - - - - - - -
19/02:00pm 12.6 SSW 19 26 1030.0 - 0.2 - - - - - - -
19/01:30pm 14.2 SSW 17 26 1029.7 - 0.2 - - - - - - -
19/01:00pm 13.7 SSW 16 23 1029.5 - 0.2 - - - - - - -
19/12:30pm 13.0 SSE 13 19 1029.4 - 0.2 - - - - - - -
19/12:00pm 13.6 S 18 24 1029.3 - 0.2 - - - - - - -
19/11:30am 13.8 SSW 17 23 1029.0 - 0.2 - - - - - - -
19/11:18am 13.6 SSW 17 28 1028.9 - 0.2 - - - - - - -
19/11:00am 13.7 SSW 17 23 1028.5 - 0.2 - - - - - - -
19/10:30am 13.1 SSW 15 21 1028.2 - 0.2 - - - - - - -
19/10:00am 11.6 SSW 15 20 1028.0 - 0.2 - - - - - - -
19/09:30am 10.6 SSW 8 11 1027.6 - 0.2 - - - - - - -
19/09:00am 9.2 WSW 5 7 1027.2 - 5.4 Recent precip. - - - - - -
19/08:30am 8.6 WSW 6 9 1026.6 - 4.4 - - - - - - -
19/08:00am 8.3 W 9 13 1026.1 - 2.0 - - - - - - -
19/07:30am 8.7 SW 7 10 1025.2 - 1.8 - - - - - - -
19/07:00am 8.2 W 6 8 1024.1 - 1.6 - - - - - - -
19/06:30am 8.5 SSW 8 12 1024.0 - 1.4 - - - - - - -
19/06:00am 8.6 SW 10 15 1023.2 - 1.2 Recent precip. - - - - - -
19/05:30am 8.3 SW 11 21 1022.8 - 1.0 - - - - - - -
19/05:00am 8.4 W 6 9 1021.8 - 0.6 - - - - - - -
19/04:30am 8.5 W 6 9 1021.3 - 0.6 - - - - - - -
19/04:00am 8.9 WSW 7 9 1021.0 - 0.4 - - - - - - -
19/03:30am 8.9 W 5 8 1020.2 - 0.4 - - - - - - -
19/03:00am 9.2 W 6 9 1020.0 - 0.4 - - - - - - -
19/02:30am 9.8 W 8 11 1019.8 - 0.4 - - - - - - -
19/02:00am 9.3 W 5 7 1019.7 - 0.4 - - - - - - -
19/01:30am 9.6 W 6 8 1019.4 - 0.4 - - - - - - -
19/01:00am 9.7 W 7 9 1019.1 - 0.4 - - - - - - -
19/12:30am 9.9 W 6 10 1018.7 - 0.4 - - - - - - -
19/12:00am 10.1 WNW 5 8 1018.5 - 0.4 - - - - - - -
 
Date/Time
EST
Temp

°C
Wind Pressure Rain
since 9am
mm
Weather Cloud Vis
km
Sea
Height
m
Swell
Dir
 
Speed
knots
Gust
knots
hPa Trend Height
m
Period
s
Dir
18/11:30pm 10.5 W 4 6 1018.3 - 0.4 - - - - - - -
18/11:00pm 10.9 W 4 7 1018.3 - 0.4 - - - - - - -
18/10:30pm 11.5 WNW 6 9 1018.0 - 0.4 - - - - - - -
18/10:00pm 11.6 W 5 8 1017.7 - 0.4 - - - - - - -
18/09:30pm 11.7 WNW 6 10 1017.0 - 0.4 - - - - - - -
18/09:00pm 11.5 WNW 5 7 1016.4 - 0.4 Recent precip. - - - - - -
18/08:30pm 11.5 W 6 8 1016.4 - 0.4 - - - - - - -
18/08:00pm 11.5 W 7 10 1015.7 - 0.2 - - - - - - -
18/07:30pm 11.7 W 8 12 1015.7 - 0.2 - - - - - - -
18/07:00pm 12.7 W 10 18 1015.0 - 0.0 - - - - - - -
18/06:30pm 13.4 W 12 18 1013.9 - 0.0 - - - - - - -
18/06:00pm 14.2 WSW 11 18 1013.0 - 0.0 - - - - - - -
18/05:30pm 14.4 SSW 12 15 1012.1 - 0.0 - - - - - - -
18/05:00pm 18.4 WSW 13 21 1011.1 - 0.0 - - - - - - -
18/04:30pm 20.5 WNW 12 18 1010.3 - 0.0 - - - - - - -
18/04:00pm 20.9 WNW 11 17 1010.0 - 0.0 - - - - - - -
18/03:30pm 21.2 W 12 20 1009.7 - 0.0 - - - - - - -
18/03:00pm 21.5 NW 12 21 1009.8 - 0.0 - - - - - - -
18/02:30pm 20.9 WNW 11 21 1010.2 - 0.0 - - - - - - -
18/02:00pm 21.4 WNW 12 18 1010.2 - 0.0 - - - - - - -
18/01:30pm 20.3 WNW 11 18 1010.8 - 0.0 - - - - - - -
18/01:00pm 19.9 NW 9 15 1011.1 - 0.0 - - - - - - -
18/12:30pm 19.2 WNW 10 17 1011.9 - 0.0 - - - - - - -
18/12:00pm 17.7 WNW 10 15 1012.6 - 0.0 - - - - - - -
18/11:30am 17.6 WNW 11 18 1013.1 - 0.0 - - - - - - -
18/11:00am 16.9 NW 11 16 1013.5 - 0.0 - - - - - - -
18/10:30am 16.4 WNW 11 17 1013.7 - 0.0 - - - - - - -
18/10:00am 15.5 WNW 10 19 1013.8 - 0.0 - - - - - - -
18/09:30am 15.0 WNW 11 16 1014.0 - 0.0 - - - - - - -
18/09:00am 14.3 W 10 14 1013.7 - 1.8 - - - - - - -
18/08:30am 14.2 WNW 9 16 1013.6 - 1.8 - - - - - - -
18/08:00am 13.4 W 7 11 1013.2 - 1.8 - - - - - - -
18/07:30am 12.8 W 3 4 1013.1 - 1.8 - - - - - - -
18/07:00am 12.5 NW 2 3 1012.9 - 1.8 - - - - - - -
18/06:30am 12.2 NW 2 3 1012.9 - 1.8 - - - - - - -
18/06:00am 12.1 NNW 4 5 1012.6 - 1.8 - - - - - - -
18/05:30am 12.2 NW 3 6 1012.5 - 1.8 - - - - - - -
18/05:00am 12.2 WNW 2 4 1012.2 - 1.8 - - - - - - -
18/04:30am 12.7 NW 2 4 1012.7 - 1.8 - - - - - - -
18/04:00am 12.8 NNW 4 6 1012.2 - 1.8 - - - - - - -
18/03:30am 12.6 NW 4 6 1012.0 - 1.8 - - - - - - -
18/03:00am 12.7 NW 5 7 1012.2 - 1.8 Recent precip. - - - - - -
18/02:30am 12.6 NW 4 6 1012.4 - 1.8 - - - - - - -
18/02:00am 12.6 NW 3 6 1013.1 - 1.6 - - - - - - -
18/01:30am 12.7 W 2 4 1013.5 - 1.6 - - - - - - -
18/01:00am 12.8 W 1 2 1013.6 - 1.6 - - - - - - -
18/12:30am 12.9 W 2 4 1014.0 - 1.6 - - - - - - -
18/12:00am 13.0 CALM 0 2 1014.3 - 1.4 Recent precip. - - - - - -
 
Date/Time
EST
Temp

°C
Wind Pressure Rain
since 9am
mm
Weather Cloud Vis
km
Sea
Height
m
Swell
Dir
 
Speed
knots
Gust
knots
hPa Trend Height
m
Period
s
Dir
17/11:30pm 13.0 NW 2 4 1014.8 - 1.4 - - - - - - -
17/11:00pm 13.0 NW 3 5 1015.0 - 1.2 - - - - - - -
17/10:30pm 13.1 NNW 3 4 1015.1 - 1.0 - - - - - - -
17/10:00pm 13.2 N 3 4 1015.4 - 0.6 - - - - - - -
17/09:30pm 13.3 N 4 6 1015.5 - 0.4 - - - - - - -
17/09:00pm 13.6 N 5 6 1015.7 - 0.4 - - - - - - -
17/08:30pm 13.5 N 4 6 1015.9 - 0.4 - - - - - - -
17/08:00pm 13.7 N 5 8 1016.1 - 0.4 - - - - - - -
17/07:30pm 13.6 N 3 4 1016.1 - 0.4 - - - - - - -
17/07:00pm 13.6 NNE 4 7 1016.7 - 0.4 - - - - - - -
17/06:30pm 13.6 NNE 5 7 1016.3 - 0.4 - - - - - - -
17/06:00pm 13.8 NNE 5 7 1016.4 - 0.4 - - - - - - -
17/05:30pm 13.8 NNE 5 7 1016.4 - 0.4 - - - - - - -
17/05:00pm 13.8 NE 5 8 1016.5 - 0.4 - - - - - - -
17/04:30pm 14.1 NNE 3 5 1017.9 - 0.2 - - - - - - -
17/04:00pm 14.4 NNE 4 6 1018.3 - 0.0 - - - - - - -
17/03:30pm 14.8 ENE 5 8 1017.6 - 0.0 - - - - - - -
17/03:00pm 14.9 NE 5 8 1017.9 - 0.0 - - - - - - -
17/02:30pm 15.1 NE 5 9 1018.3 - 0.0 - - - - - - -
17/02:00pm 15.0 NNE 4 5 1018.8 - 0.0 - - - - - - -
17/01:30pm 15.2 NNE 5 7 1019.3 - 0.0 - - - - - - -
17/01:00pm 15.4 NNE 7 9 1019.7 - 0.0 - - - - - - -
17/12:30pm 15.3 NNE 6 9 1020.3 - 0.0 - - - - - - -
17/12:00pm 15.6 NE 7 11 1021.0 - 0.0 - - - - - - -
17/11:30am 16.3 NE 6 10 1021.9 - 0.0 - - - - - - -
17/11:00am 15.4 NNE 7 10 1022.5 - 0.0 - - - - - - -
17/10:30am 15.4 NNE 5 7 1023.1 - 0.0 - - - - - - -
17/10:00am 14.7 NE 4 7 1023.5 - 0.0 - - - - - - -
17/09:30am 14.1 NNW 1 1 1023.9 - 0.0 - - - - - - -
17/09:00am 13.0 NNW 2 3 1024.3 - 0.0 - - - - - - -
17/08:30am 11.6 CALM 0 0 1024.3 - 0.0 - - - - - - -
17/08:00am 10.5 CALM 0 0 1024.3 - 0.0 - - - - - - -
17/07:30am 9.2 CALM 0 0 1023.9 - 0.0 - - - - - - -
17/07:00am 9.3 SW 2 2 1023.4 - 0.0 - - - - - - -
17/06:30am 9.2 SW 2 3 1023.7 - 0.0 - - - - - - -
17/06:00am 9.1 SW 2 3 1023.7 - 0.0 - - - - - - -
17/05:30am 8.9 SW 2 3 1023.5 - 0.0 - - - - - - -
17/05:00am 9.5 SW 2 3 1023.5 - 0.0 - - - - - - -
17/04:30am 9.6 SW 2 3 1023.4 - 0.0 - - - - - - -
17/04:00am 9.5 SW 2 2 1023.5 - 0.0 - - - - - - -
17/03:30am 9.5 SW 3 3 1023.4 - 0.0 - - - - - - -
17/03:00am 9.7 NNW 1 1 1023.6 - 0.0 - - - - - - -
17/02:30am 10.2 NNW 1 2 1023.9 - 0.0 - - - - - - -
17/02:00am 10.6 CALM 0 0 1024.1 - 0.0 - - - - - - -
17/01:30am 10.7 CALM 0 1 1024.6 - 0.0 - - - - - - -
17/01:00am 10.8 CALM 0 0 1025.2 - 0.0 - - - - - - -
17/12:30am 11.3 WNW 2 2 1025.5 - 0.0 - - - - - - -

Other Formats:

Comma delimited format used in spreadsheet applications
http://www.bom.gov.au/fwo/IDV60701/IDV60701.94857.axf

JavaScript Object Notation format (JSON) in row-major order
http://www.bom.gov.au/fwo/IDV60701/IDV60701.94857.json